createdAt,value
2019-05-17T00:04:21.491Z,2.25
2019-05-17T00:09:26.767Z,3.00
2019-05-17T00:14:31.047Z,2.00
2019-05-17T00:19:36.895Z,2.50
2019-05-17T00:24:40.911Z,3.00
2019-05-17T00:29:46.527Z,2.00
2019-05-17T00:34:50.661Z,1.50
2019-05-17T00:39:56.709Z,3.50
2019-05-17T00:45:00.469Z,2.00
2019-05-17T00:50:07.417Z,2.00
2019-05-17T00:55:11.879Z,1.80
2019-05-17T01:00:17.143Z,2.40
2019-05-17T01:05:21.420Z,2.20
2019-05-17T01:10:27.242Z,3.00
2019-05-17T01:15:31.625Z,3.00
2019-05-17T01:20:36.991Z,1.25
2019-05-17T01:25:41.215Z,3.00
2019-05-17T01:30:46.370Z,2.20
2019-05-17T01:35:50.536Z,2.25
2019-05-17T01:40:56.460Z,3.00
2019-05-17T01:46:00.412Z,2.00
2019-05-17T01:51:04.578Z,2.00
2019-05-17T01:56:08.680Z,2.00
2019-05-17T02:01:12.764Z,2.00
2019-05-17T02:06:17.013Z,1.50
2019-05-17T02:11:21.105Z,2.50
2019-05-17T02:16:26.758Z,2.00
2019-05-17T02:21:30.938Z,1.67
2019-05-17T02:26:37.303Z,2.00
2019-05-17T02:31:43.473Z,1.00
2019-05-17T02:36:47.537Z,2.00
2019-05-17T02:41:53.292Z,2.00
2019-05-17T02:46:57.398Z,2.00
2019-05-17T02:52:03.265Z,1.00
2019-05-17T02:57:07.254Z,2.00
2019-05-17T03:02:12.657Z,1.25
2019-05-17T03:07:16.960Z,1.00
2019-05-17T03:12:23.597Z,2.00
2019-05-17T03:17:26.780Z,2.00
2019-05-17T03:22:33.224Z,1.25
2019-05-17T03:27:36.777Z,2.00
2019-05-17T03:32:47.341Z,1.00
2019-05-17T03:37:48.807Z,1.00
2019-05-17T03:42:53.836Z,1.00
2019-05-17T03:47:58.247Z,1.00
2019-05-17T03:53:02.694Z,1.00
2019-05-17T03:58:06.856Z,1.50
2019-05-17T04:03:13.584Z,2.00
2019-05-17T04:08:16.883Z,2.00
2019-05-17T04:13:23.392Z,1.00
2019-05-17T04:18:26.759Z,1.00
2019-05-17T04:23:33.984Z,2.00
2019-05-17T04:28:36.663Z,1.00
2019-05-17T04:33:42.883Z,2.00
2019-05-17T04:38:46.458Z,2.25
2019-05-17T04:43:53.119Z,1.20
2019-05-17T04:48:56.279Z,2.00
2019-05-17T04:54:03.233Z,2.00
2019-05-17T04:59:06.195Z,2.00
2019-05-17T05:04:10.271Z,2.00
2019-05-17T05:09:14.357Z,1.75
2019-05-17T05:14:18.382Z,3.00
2019-05-17T05:19:22.495Z,2.00
2019-05-17T05:24:26.633Z,1.00
2019-05-17T05:29:32.152Z,2.00
2019-05-17T05:34:36.369Z,1.00
2019-05-17T05:39:41.403Z,1.40
2019-05-17T05:44:45.758Z,1.20
2019-05-17T05:49:51.917Z,1.25
2019-05-17T05:54:55.622Z,2.00
2019-05-17T06:00:02.031Z,1.25
2019-05-17T06:05:06.734Z,1.00
2019-05-17T06:10:13.086Z,2.00
2019-05-17T06:15:17.826Z,2.00
2019-05-17T06:20:23.946Z,1.00
2019-05-17T06:25:27.972Z,2.00
2019-05-17T06:30:32.443Z,2.00
2019-05-17T06:35:36.551Z,1.20
2019-05-17T06:40:42.057Z,2.00
2019-05-17T06:45:46.499Z,1.00
2019-05-17T06:50:51.982Z,1.60
2019-05-17T06:55:56.110Z,17.25
2019-05-17T07:01:00.241Z,19.00
2019-05-17T07:06:06.056Z,19.00
2019-05-17T07:11:10.151Z,16.20
2019-05-17T07:16:14.200Z,14.80
2019-05-17T07:21:20.387Z,12.20
2019-05-17T07:26:23.998Z,14.00
2019-05-17T07:31:29.794Z,12.25
2019-05-17T07:36:33.934Z,10.60
2019-05-17T07:41:40.128Z,12.00
2019-05-17T07:46:43.854Z,13.00
2019-05-17T07:51:50.170Z,12.25
2019-05-17T07:56:53.644Z,14.50
2019-05-17T08:01:59.698Z,11.00
2019-05-17T08:07:03.742Z,12.80
2019-05-17T08:12:10.856Z,10.00
2019-05-17T08:17:13.683Z,9.60
2019-05-17T08:22:20.018Z,11.75
2019-05-17T08:27:23.523Z,13.20
2019-05-17T08:32:27.773Z,13.60
2019-05-17T08:37:32.126Z,11.75
2019-05-17T08:42:40.373Z,15.80
2019-05-17T08:47:44.018Z,11.00
2019-05-17T08:52:49.543Z,10.50
2019-05-17T08:57:53.768Z,9.80
2019-05-17T09:02:59.964Z,9.00
2019-05-17T09:08:03.785Z,9.00
2019-05-17T09:13:10.573Z,10.00
2019-05-17T09:18:13.691Z,10.00
2019-05-17T09:23:19.715Z,9.40
2019-05-17T09:28:23.685Z,8.50
2019-05-17T09:33:29.975Z,8.75
2019-05-17T09:38:33.963Z,7.00
2019-05-17T09:43:40.251Z,9.50
2019-05-17T09:48:46.856Z,8.00
2019-05-17T09:53:49.828Z,7.00
2019-05-17T09:58:54.071Z,9.25
2019-05-17T10:03:59.917Z,9.00
2019-05-17T10:09:05.582Z,7.25
2019-05-17T10:14:11.432Z,8.75
2019-05-17T10:19:15.670Z,8.00
2019-05-17T10:24:23.971Z,8.50
2019-05-17T10:29:25.729Z,10.00
2019-05-17T10:34:29.812Z,8.00
2019-05-17T10:39:33.834Z,8.00
2019-05-17T10:44:46.281Z,10.00
2019-05-17T10:49:43.750Z,8.20
2019-05-17T10:54:47.805Z,8.00
2019-05-17T10:59:51.940Z,8.00
2019-05-17T11:04:56.066Z,6.50
2019-05-17T11:10:02.251Z,7.75
2019-05-17T11:15:11.838Z,7.00
2019-05-17T11:20:13.168Z,7.25
2019-05-17T11:25:17.346Z,7.00
2019-05-17T11:30:21.554Z,8.20
2019-05-17T11:35:25.645Z,8.25
2019-05-17T11:40:30.093Z,8.00
2019-05-17T11:45:34.187Z,7.00
2019-05-17T11:50:38.285Z,7.00
2019-05-17T11:55:42.406Z,8.00
2019-05-17T12:00:46.430Z,8.25
2019-05-17T12:05:50.648Z,7.20
2019-05-17T12:10:54.839Z,8.00
2019-05-17T12:15:58.901Z,7.00
2019-05-17T12:21:03.033Z,7.75
2019-05-17T12:26:07.135Z,7.40
2019-05-17T12:31:11.228Z,5.40
2019-05-17T12:36:15.466Z,7.50
2019-05-17T12:41:19.544Z,7.25
2019-05-17T12:46:23.708Z,7.20
2019-05-17T12:51:27.742Z,7.00
2019-05-17T12:56:31.760Z,6.75
2019-05-17T13:01:35.784Z,7.00
2019-05-17T13:06:39.897Z,6.50
2019-05-17T13:11:43.923Z,5.60
2019-05-17T13:16:48.020Z,6.00
2019-05-17T13:21:52.031Z,6.25
2019-05-17T13:26:56.032Z,7.40
2019-05-17T13:32:00.075Z,7.00
2019-05-17T13:37:04.371Z,7.00
2019-05-17T13:42:08.511Z,6.25
2019-05-17T13:47:12.704Z,7.80
2019-05-17T13:57:29.706Z,7.25
2019-05-17T14:02:33.927Z,7.00
2019-05-17T14:07:38.234Z,6.00
2019-05-17T14:12:42.353Z,6.25
2019-05-17T14:17:46.531Z,6.00
2019-05-17T14:22:50.719Z,7.00
2019-05-17T14:27:54.751Z,7.50
2019-05-17T14:32:58.772Z,7.00
2019-05-17T14:38:02.804Z,8.00
2019-05-17T14:43:06.827Z,7.00
2019-05-17T14:48:10.964Z,9.00
2019-05-17T14:53:14.985Z,8.25
2019-05-17T14:58:20.609Z,9.25
2019-05-17T15:03:25.271Z,9.50
2019-05-17T15:48:34.565Z,9.75
2019-05-17T15:53:37.647Z,10.40
2019-05-17T15:58:41.845Z,10.25
2019-05-17T16:08:52.784Z,10.75
2019-05-17T16:13:56.873Z,10.00
2019-05-17T16:19:00.893Z,10.50
2019-05-17T16:24:05.081Z,10.25
2019-05-17T16:29:09.246Z,11.00
2019-05-17T16:34:13.333Z,11.00
2019-05-17T16:39:17.550Z,9.60
2019-05-17T16:44:21.649Z,9.75
2019-05-17T16:49:28.405Z,10.50
2019-05-17T16:54:31.520Z,9.00
2019-05-17T16:59:35.605Z,10.40
2019-05-17T17:04:39.706Z,9.80
2019-05-17T17:09:43.732Z,11.50
2019-05-17T17:14:47.923Z,10.80
2019-05-17T17:19:51.939Z,11.80
2019-05-17T17:30:03.506Z,11.00
2019-05-17T17:35:08.035Z,10.80
2019-05-17T17:40:12.842Z,11.00
2019-05-17T17:45:21.157Z,9.80
2019-05-17T17:50:25.326Z,11.00
2019-05-17T17:55:29.441Z,11.20
2019-05-17T18:00:33.533Z,11.50
2019-05-17T18:05:37.713Z,10.75
2019-05-17T18:10:41.940Z,10.50
2019-05-17T18:15:49.864Z,9.80
2019-05-17T18:20:52.795Z,9.80
2019-05-17T18:25:56.975Z,10.00
2019-05-17T18:31:01.115Z,11.00
2019-05-17T18:36:05.278Z,10.40
2019-05-17T18:41:09.450Z,10.60
2019-05-17T18:46:13.610Z,12.00
2019-05-17T18:51:17.726Z,10.00
2019-05-17T18:56:21.847Z,10.00
2019-05-17T19:06:42.412Z,10.80
2019-05-17T19:11:46.962Z,10.20
2019-05-17T19:16:51.077Z,9.25
2019-05-17T19:21:55.131Z,9.00
2019-05-17T19:26:59.228Z,10.75
2019-05-17T19:32:03.325Z,11.40
2019-05-17T19:37:07.425Z,9.60
2019-05-17T19:42:11.558Z,9.00
2019-05-17T19:47:15.700Z,9.20
2019-05-17T19:52:19.813Z,9.50
2019-05-17T19:57:23.849Z,9.50
2019-05-17T20:02:27.925Z,8.60
2019-05-17T20:07:37.879Z,9.00
2019-05-17T20:12:38.188Z,9.00
2019-05-17T20:17:42.679Z,9.75
2019-05-17T20:22:46.886Z,9.20
2019-05-17T20:27:51.147Z,8.00
2019-05-17T20:32:55.290Z,9.00
2019-05-17T20:37:59.479Z,8.25
2019-05-17T20:43:03.749Z,7.75
2019-05-17T20:48:10.589Z,8.00
2019-05-17T20:53:18.746Z,8.60
2019-05-17T20:58:20.497Z,8.40
2019-05-17T21:03:24.736Z,8.40
2019-05-17T21:08:28.824Z,8.00
2019-05-17T21:13:32.888Z,6.75
2019-05-17T21:18:37.107Z,7.50
2019-05-17T21:23:41.219Z,8.50
2019-05-17T21:28:47.286Z,7.25
2019-05-17T21:33:51.413Z,7.25
2019-05-17T21:38:55.642Z,7.80
2019-05-17T21:43:59.695Z,7.60
2019-05-17T21:49:03.839Z,7.75
2019-05-17T21:54:08.090Z,8.00
2019-05-17T21:59:12.790Z,6.50
2019-05-17T22:04:17.346Z,7.75
2019-05-17T22:09:21.686Z,9.00
2019-05-17T22:14:26.143Z,7.20
2019-05-17T22:19:30.555Z,6.80
2019-05-17T22:24:35.004Z,7.80
2019-05-17T22:29:39.420Z,6.50
2019-05-17T22:34:43.711Z,6.20
2019-05-17T22:39:48.130Z,7.00
2019-05-17T22:44:52.548Z,7.75
2019-05-17T22:49:56.989Z,8.00
2019-05-17T22:55:01.442Z,8.00
2019-05-17T23:00:07.246Z,8.00
2019-05-17T23:05:11.716Z,6.50
2019-05-17T23:10:16.067Z,7.25
2019-05-17T23:15:20.842Z,7.40
2019-05-17T23:20:25.207Z,5.80
2019-05-17T23:25:29.528Z,6.60
2019-05-17T23:30:34.157Z,7.50
2019-05-17T23:35:38.825Z,6.00
2019-05-17T23:40:43.163Z,6.50
2019-05-17T23:45:47.670Z,6.00
2019-05-17T23:50:52.077Z,6.00
2019-05-17T23:55:56.563Z,6.00
